Time;durP1;ratioP1;P1;durP2;ratioP2;P2;SDS_P1;SDS_P2;PMS_P1;PMS_P2;Temp;Humidity;BMP_temperature;BMP_pressure;BME280_temperature;BME280_humidity;BME280_pressure;Samples;Min_cycle;Max_cycle;Signal;HPM_P1;HPM_P2
2022/04/23 00:02:25;;;;;;;14.63;10.70;;;;;;;8.48;72.13;101059.16;1744687;82;20912;-80
2022/04/23 00:04:52;;;;;;;16.55;12.00;;;;;;;8.47;72.24;101061.39;1744498;80;20925;-78
2022/04/23 00:07:20;;;;;;;17.60;13.32;;;;;;;8.45;72.20;101051.47;1744584;80;20957;-79
2022/04/23 00:09:47;;;;;;;16.45;13.10;;;;;;;8.41;72.18;101044.67;1744774;82;21382;-80
2022/04/23 00:12:14;;;;;;;17.98;14.03;;;;;;;8.40;72.43;101044.70;1744530;81;21239;-80
2022/04/23 00:14:43;;;;;;;19.02;12.82;;;;;;;8.39;72.63;101046.47;1744627;81;20925;-79
2022/04/23 00:17:11;;;;;;;14.73;11.93;;;;;;;8.38;72.85;101050.02;1747085;81;21019;-79
2022/04/23 00:19:38;;;;;;;17.05;12.35;;;;;;;8.39;72.97;101046.94;1757983;81;20896;-80
2022/04/23 00:22:05;;;;;;;15.60;12.10;;;;;;;8.40;73.16;101047.31;1757918;81;20892;-80
2022/04/23 00:24:34;;;;;;;12.60;11.30;;;;;;;8.41;73.26;101049.05;1757978;80;20845;-79
2022/04/23 00:27:03;;;;;;;14.78;11.53;;;;;;;8.42;73.34;101052.05;1757946;81;21473;-80
2022/04/23 00:29:30;;;;;;;15.28;12.23;;;;;;;8.43;73.36;101057.22;1758351;81;21048;-80
2022/04/23 00:31:58;;;;;;;16.10;13.13;;;;;;;8.44;73.37;101060.20;1758592;81;20861;-79
2022/04/23 00:34:27;;;;;;;16.20;12.82;;;;;;;8.47;73.41;101056.60;1758176;81;21398;-80
2022/04/23 00:36:53;;;;;;;18.23;15.00;;;;;;;8.48;73.30;101057.01;1757942;81;21231;-80
2022/04/23 00:39:21;;;;;;;15.65;13.50;;;;;;;8.49;73.17;101054.77;1757940;81;20893;-78
2022/04/23 00:41:51;;;;;;;14.90;12.28;;;;;;;8.49;73.02;101051.72;1758141;81;21108;-80
2022/04/23 00:44:17;;;;;;;14.07;10.30;;;;;;;8.48;72.89;101052.62;1758183;81;20884;-80
2022/04/23 00:46:45;;;;;;;12.73;11.12;;;;;;;8.47;72.87;101050.06;1758466;81;20858;-79
2022/04/23 00:49:14;;;;;;;12.90;10.45;;;;;;;8.44;72.93;101032.77;1761653;81;20929;-79
2022/04/23 00:51:40;;;;;;;14.43;10.15;;;;;;;8.44;73.01;101029.31;1761133;81;20959;-79
2022/04/23 00:54:10;;;;;;;15.43;10.23;;;;;;;8.41;73.04;101023.77;1760210;81;20919;-78
2022/04/23 00:56:39;;;;;;;11.78;9.75;;;;;;;8.37;72.97;101022.16;1760077;81;20932;-78
2022/04/23 00:59:08;;;;;;;10.55;9.53;;;;;;;8.33;73.05;101025.83;1758427;80;20880;-78
2022/04/23 01:01:37;;;;;;;12.45;9.85;;;;;;;8.34;72.98;101026.23;1758169;81;20912;-78
2022/04/23 01:04:05;;;;;;;12.53;10.43;;;;;;;8.34;72.91;101026.67;1758985;81;20948;-80
2022/04/23 01:06:36;;;;;;;13.22;9.43;;;;;;;8.34;72.87;101022.74;1759086;81;20897;-80
2022/04/23 01:09:07;;;;;;;12.88;11.57;;;;;;;8.35;72.93;101020.54;1758979;81;20928;-79
2022/04/23 01:11:36;;;;;;;12.13;10.45;;;;;;;8.39;72.89;101029.95;1758560;81;20896;-79
2022/04/23 01:14:04;;;;;;;14.70;11.25;;;;;;;8.41;72.68;101022.92;1758409;81;20959;-79
2022/04/23 01:16:32;;;;;;;13.95;12.55;;;;;;;8.42;72.46;101030.67;1758375;81;20939;-80
2022/04/23 01:18:59;;;;;;;13.72;10.13;;;;;;;8.43;72.31;101028.94;1758266;81;20884;-79
2022/04/23 01:21:27;;;;;;;15.80;10.00;;;;;;;8.42;72.17;101018.91;1758193;80;20896;-79
2022/04/23 01:23:53;;;;;;;15.03;10.63;;;;;;;8.41;72.13;101017.70;1758495;81;20896;-79
2022/04/23 01:26:30;;;;;;;10.88;9.43;;;;;;;8.41;72.15;101005.94;1758643;81;21943;-80
2022/04/23 01:28:57;;;;;;;11.18;9.05;;;;;;;8.42;72.16;101007.62;1758238;81;21299;-80
2022/04/23 01:31:24;;;;;;;12.68;9.50;;;;;;;8.43;72.13;101012.78;1758346;81;20837;-79
2022/04/23 01:33:51;;;;;;;10.48;9.45;;;;;;;8.44;72.18;101009.23;1758113;81;20932;-80
2022/04/23 01:36:17;;;;;;;11.70;10.28;;;;;;;8.45;72.17;101009.64;1758079;80;20956;-78
2022/04/23 01:38:45;;;;;;;20.15;13.90;;;;;;;8.47;72.15;101010.86;1758129;81;21144;-79
2022/04/23 01:41:12;;;;;;;11.80;9.70;;;;;;;8.48;72.11;101006.88;1758359;81;20987;-79
2022/04/23 01:43:39;;;;;;;12.18;9.48;;;;;;;8.49;72.17;101011.64;1758823;81;20896;-78
2022/04/23 01:46:07;;;;;;;15.55;11.48;;;;;;;8.48;72.12;101020.42;1758209;80;20900;-79
2022/04/23 01:48:33;;;;;;;13.95;11.15;;;;;;;8.47;72.11;101029.16;1758067;80;20948;-79
2022/04/23 01:51:00;;;;;;;15.95;11.80;;;;;;;8.43;71.92;101035.47;1758156;81;21805;-79
2022/04/23 01:53:27;;;;;;;15.53;12.10;;;;;;;8.37;71.78;101030.00;1758174;81;20912;-79
2022/04/23 01:55:55;;;;;;;16.23;11.85;;;;;;;8.31;71.78;101015.89;1757999;80;20897;-79
2022/04/23 01:58:24;;;;;;;14.28;12.10;;;;;;;8.25;71.89;101010.50;1758130;81;21017;-79
2022/04/23 02:00:53;;;;;;;18.02;12.18;;;;;;;8.21;72.11;101013.31;1758823;81;20947;-79
2022/04/23 02:03:20;;;;;;;14.23;12.00;;;;;;;8.17;72.47;101011.28;1761801;80;21067;-78
2022/04/23 02:05:48;;;;;;;15.50;12.98;;;;;;;8.16;72.68;101008.73;1761017;81;20849;-80
2022/04/23 02:08:17;;;;;;;13.68;12.23;;;;;;;8.13;72.76;101001.88;1760088;80;20845;-77
2022/04/23 02:10:43;;;;;;;12.98;10.18;;;;;;;8.10;72.67;101002.02;1758870;81;20979;-79
2022/04/23 02:13:11;;;;;;;13.75;11.22;;;;;;;8.06;72.81;100993.92;1758494;81;20884;-80
2022/04/23 02:15:40;;;;;;;14.98;11.95;;;;;;;8.02;72.99;100978.83;1758406;81;21253;-79
2022/04/23 02:18:08;;;;;;;15.58;11.18;;;;;;;8.00;73.09;100964.99;1754715;81;20865;-80
2022/04/23 02:20:37;;;;;;;18.52;13.58;;;;;;;7.97;73.28;100953.84;1745274;81;20889;-79
2022/04/23 02:23:04;;;;;;;14.40;12.88;;;;;;;7.95;73.46;100962.20;1745247;82;20956;-79
2022/04/23 02:25:34;;;;;;;14.90;12.07;;;;;;;7.96;73.66;100967.38;1745092;81;20885;-79
2022/04/23 02:28:01;;;;;;;17.32;15.05;;;;;;;7.99;73.56;100978.98;1745751;81;20948;-79
2022/04/23 02:30:30;;;;;;;18.48;16.55;;;;;;;8.01;73.35;100975.84;1745396;81;21012;-80
2022/04/23 02:32:58;;;;;;;15.70;14.20;;;;;;;8.01;73.28;100973.23;1745135;82;20964;-80
2022/04/23 02:35:25;;;;;;;26.15;16.50;;;;;;;8.01;73.17;100967.17;1744980;80;20940;-79
2022/04/23 02:38:00;;;;;;;19.30;15.72;;;;;;;8.02;73.12;100976.69;1745335;81;20968;-78
2022/04/23 02:40:24;;;;;;;18.87;15.55;;;;;;;8.03;73.11;100974.02;1744922;81;21217;-79
2022/04/23 02:42:51;;;;;;;22.93;17.80;;;;;;;8.04;73.22;100979.62;1745153;82;20921;-79
2022/04/23 02:45:21;;;;;;;21.87;15.65;;;;;;;8.07;73.35;100978.63;1745487;80;20890;-80
2022/04/23 02:47:51;;;;;;;18.17;15.88;;;;;;;8.09;73.28;100984.20;1745579;81;20916;-78
2022/04/23 02:50:31;;;;;;;16.95;14.73;;;;;;;8.14;73.29;100975.29;1745134;81;20932;-78
2022/04/23 02:52:59;;;;;;;20.30;16.42;;;;;;;8.18;73.26;100976.86;1744750;82;21152;-78
2022/04/23 02:55:27;;;;;;;19.73;14.35;;;;;;;8.25;73.48;100978.30;1744914;82;20877;-80
2022/04/23 02:57:56;;;;;;;17.02;14.25;;;;;;;8.30;73.52;100981.55;1745064;80;20933;-80
2022/04/23 03:00:23;;;;;;;15.60;13.78;;;;;;;8.34;73.02;100977.02;1744771;81;20948;-80
2022/04/23 03:02:52;;;;;;;15.55;13.48;;;;;;;8.37;73.08;100975.13;1744772;81;20941;-80
2022/04/23 03:05:18;;;;;;;20.27;14.58;;;;;;;8.42;73.05;100990.63;1744689;82;21113;-79
2022/04/23 03:07:46;;;;;;;19.65;15.50;;;;;;;8.44;72.98;100987.02;1744660;82;20920;-79
2022/04/23 03:10:16;;;;;;;17.92;14.58;;;;;;;8.45;72.66;100970.91;1744730;81;20925;-79
2022/04/23 03:12:44;;;;;;;27.67;20.00;;;;;;;8.45;72.44;100964.38;1745217;82;21462;-79
2022/04/23 03:15:20;;;;;;;27.13;19.12;;;;;;;8.44;72.37;100962.66;1744765;81;21426;-79
2022/04/23 03:17:45;;;;;;;31.57;22.67;;;;;;;8.44;71.86;100971.34;1744016;81;21910;-80
2022/04/23 03:20:14;;;;;;;34.18;23.55;;;;;;;8.45;71.62;100969.60;1757783;81;20932;-80
2022/04/23 03:22:43;;;;;;;31.17;24.40;;;;;;;8.47;71.51;100965.13;1757891;81;20951;-80
2022/04/23 03:25:11;;;;;;;35.38;22.17;;;;;;;8.52;71.43;100978.02;1757927;80;20972;-78
2022/04/23 03:27:39;;;;;;;30.40;20.48;;;;;;;8.54;71.43;100969.61;1757984;81;21042;-78
2022/04/23 03:30:08;;;;;;;48.78;37.40;;;;;;;8.58;71.17;100967.25;1758084;81;21246;-80
2022/04/23 03:32:35;;;;;;;45.43;30.45;;;;;;;8.59;71.21;100964.58;1758555;81;20920;-80
2022/04/23 03:35:05;;;;;;;44.23;30.80;;;;;;;8.61;70.92;100956.20;1758415;80;20979;-78
2022/04/23 03:37:38;;;;;;;42.55;31.82;;;;;;;8.62;70.45;100959.66;1758180;81;20936;-79
2022/04/23 03:40:06;;;;;;;48.50;34.38;;;;;;;8.64;69.87;100958.66;1757364;81;20928;-80
2022/04/23 03:42:33;;;;;;;45.92;32.45;;;;;;;8.66;69.66;100952.91;1758266;80;21000;-80
2022/04/23 03:45:04;;;;;;;44.98;30.82;;;;;;;8.73;69.49;100953.47;1757897;80;20905;-81
2022/04/23 03:47:34;;;;;;;38.67;29.25;;;;;;;8.85;69.00;100963.83;1758061;81;21038;-79
2022/04/23 03:50:07;;;;;;;35.88;27.73;;;;;;;8.98;68.57;100975.41;1758470;81;20940;-80
2022/04/23 03:52:34;;;;;;;40.20;27.70;;;;;;;9.14;68.21;100983.36;1758452;81;21463;-81
2022/04/23 03:55:01;;;;;;;28.85;22.32;;;;;;;9.31;67.68;100989.07;1743983;81;22030;-79
2022/04/23 03:57:29;;;;;;;27.50;19.92;;;;;;;9.47;66.79;100993.09;1758253;81;21389;-80
2022/04/23 03:59:57;;;;;;;28.57;19.27;;;;;;;9.60;66.32;100986.32;1758178;81;20927;-81
2022/04/23 04:02:24;;;;;;;20.85;16.80;;;;;;;9.77;65.69;100987.27;1758401;81;20963;-80
2022/04/23 04:04:52;;;;;;;28.15;17.40;;;;;;;9.93;64.71;100982.92;1761125;81;21010;-80
2022/04/23 04:07:18;;;;;;;22.93;14.53;;;;;;;10.13;64.62;100991.90;1760484;81;21112;-80
2022/04/23 04:09:46;;;;;;;16.50;11.83;;;;;;;10.41;63.18;100997.52;1760283;81;20928;-80
2022/04/23 04:12:14;;;;;;;17.35;12.33;;;;;;;10.67;61.73;101000.91;1760044;80;20928;-80
2022/04/23 04:14:43;;;;;;;12.93;10.65;;;;;;;10.94;61.18;100993.76;1758088;81;20951;-80
2022/04/23 04:17:10;;;;;;;12.18;9.83;;;;;;;11.20;59.38;100983.95;1758469;81;21035;-80
2022/04/23 04:19:39;;;;;;;12.80;9.33;;;;;;;11.40;58.05;100984.12;1758078;80;21295;-80
2022/04/23 04:22:08;;;;;;;10.85;7.78;;;;;;;11.56;56.86;100977.95;1758019;81;20888;-80
2022/04/23 04:24:37;;;;;;;8.88;7.65;;;;;;;11.60;55.46;100981.66;1758245;81;21338;-80
2022/04/23 04:27:04;;;;;;;9.23;7.35;;;;;;;11.56;54.36;100977.52;1758281;80;21042;-80
2022/04/23 04:29:31;;;;;;;7.35;5.50;;;;;;;11.48;54.24;100984.14;1758194;81;21413;-79
2022/04/23 04:33:10;;;;;;;7.22;6.33;;;;;;;11.36;53.89;100987.86;1854812;77;22570;-79
2022/04/23 04:35:37;;;;;;;6.55;5.67;;;;;;;11.26;53.58;100983.22;1822843;78;20923;-81
2022/04/23 04:38:07;;;;;;;8.95;6.20;;;;;;;11.23;53.83;100984.24;1822424;78;21906;-80
2022/04/23 04:40:35;;;;;;;7.03;6.30;;;;;;;11.20;54.15;100978.70;1822691;78;20825;-79
2022/04/23 04:43:04;;;;;;;12.10;6.87;;;;;;;11.19;53.80;100981.41;1822394;78;20900;-81
2022/04/23 04:45:30;;;;;;;8.65;6.33;;;;;;;11.15;53.77;100977.27;1817378;78;20951;-80
2022/04/23 04:47:58;;;;;;;10.15;5.97;;;;;;;11.14;53.91;100974.27;1822584;78;20970;-81
2022/04/23 04:50:24;;;;;;;9.75;5.85;;;;;;;11.14;53.94;100973.80;1822443;78;21236;-79
2022/04/23 04:52:52;;;;;;;5.87;5.03;;;;;;;11.15;54.02;100975.47;1822387;78;20923;-79
2022/04/23 04:55:19;;;;;;;5.62;4.97;;;;;;;11.15;53.42;100969.39;1822403;78;20935;-80
2022/04/23 04:57:48;;;;;;;6.58;5.53;;;;;;;11.15;52.59;100970.22;1822311;78;20955;-81
2022/04/23 05:00:18;;;;;;;9.53;4.90;;;;;;;11.13;52.54;100977.34;1822350;78;20879;-79
2022/04/23 05:02:45;;;;;;;6.78;5.33;;;;;;;11.13;52.54;100991.77;1822313;78;21468;-81
2022/04/23 05:05:13;;;;;;;7.22;5.85;;;;;;;11.12;52.80;100992.72;1822409;78;20882;-81
2022/04/23 05:07:40;;;;;;;5.97;5.25;;;;;;;11.10;53.19;100989.34;1822873;78;20904;-79
2022/04/23 05:10:08;;;;;;;9.08;6.15;;;;;;;11.10;53.49;100989.34;1823247;78;20927;-79
2022/04/23 05:12:36;;;;;;;8.63;5.92;;;;;;;11.07;53.54;100991.27;1792452;78;20899;-79
2022/04/23 05:15:04;;;;;;;11.33;6.83;;;;;;;11.05;53.86;100998.38;1823829;78;21866;-81
2022/04/23 05:17:33;;;;;;;15.50;6.35;;;;;;;11.13;53.79;101006.69;1823415;78;20915;-81
2022/04/23 05:19:59;;;;;;;9.78;6.70;;;;;;;11.27;54.01;101008.08;1818407;78;20974;-78
2022/04/23 05:22:26;;;;;;;9.78;7.03;;;;;;;11.57;53.44;101014.66;1823673;78;20934;-80
2022/04/23 05:24:52;;;;;;;6.62;5.75;;;;;;;11.99;53.01;101009.64;1824002;78;21491;-80
2022/04/23 05:27:20;;;;;;;7.05;5.62;;;;;;;12.41;52.00;101007.98;1823694;78;21189;-80
2022/04/23 05:29:48;;;;;;;6.22;5.58;;;;;;;12.84;51.49;101008.76;1823531;78;20923;-81
2022/04/23 05:32:15;;;;;;;6.00;4.50;;;;;;;13.38;51.06;101003.17;1825697;78;21349;-81
2022/04/23 05:34:43;;;;;;;5.58;4.80;;;;;;;13.95;50.31;101002.87;1827485;78;20911;-79
2022/04/23 05:37:11;;;;;;;5.05;4.50;;;;;;;14.47;49.06;100988.72;1827362;78;21479;-81
2022/04/23 05:39:37;;;;;;;5.05;4.25;;;;;;;14.98;47.68;100983.78;1827420;78;21856;-81
2022/04/23 05:42:07;;;;;;;4.83;4.42;;;;;;;15.29;46.96;100981.05;1826842;78;20910;-81
2022/04/23 05:44:34;;;;;;;5.87;4.55;;;;;;;15.43;47.05;100974.77;1825256;78;21077;-80
2022/04/23 05:47:00;;;;;;;5.95;4.80;;;;;;;15.52;46.58;100968.78;1825573;78;20976;-82
2022/04/23 05:49:27;;;;;;;6.95;4.78;;;;;;;15.49;46.44;100962.87;1825144;78;20978;-79
2022/04/23 05:51:54;;;;;;;5.80;5.00;;;;;;;15.35;46.32;100955.98;1825517;78;21203;-81
2022/04/23 05:54:23;;;;;;;6.05;4.90;;;;;;;15.10;46.83;100970.18;1825236;78;20903;-80
2022/04/23 05:56:50;;;;;;;7.83;4.92;;;;;;;14.85;47.19;100971.97;1825013;78;20970;-79
2022/04/23 05:59:17;;;;;;;6.92;5.70;;;;;;;14.59;47.86;100971.68;1825415;78;20954;-81
2022/04/23 06:01:43;;;;;;;7.53;5.80;;;;;;;14.35;48.28;100972.91;1825664;78;20856;-81
2022/04/23 06:04:11;;;;;;;5.97;5.37;;;;;;;14.16;48.98;100961.45;1825258;78;21299;-80
2022/04/23 06:06:39;;;;;;;7.83;6.12;;;;;;;14.01;49.37;100965.54;1825515;78;20891;-82
2022/04/23 06:09:07;;;;;;;7.42;5.60;;;;;;;13.91;49.83;100957.05;1825691;78;21436;-81
2022/04/23 06:11:34;;;;;;;5.22;4.83;;;;;;;13.88;50.42;100962.89;1825688;78;20922;-82
2022/04/23 06:14:01;;;;;;;6.90;5.90;;;;;;;13.79;50.40;100965.33;1825668;78;21318;-81
2022/04/23 06:16:28;;;;;;;6.08;5.55;;;;;;;13.60;50.82;100967.86;1825858;78;21241;-80
2022/04/23 06:18:55;;;;;;;8.20;6.03;;;;;;;13.43;51.33;100966.38;1825418;78;21385;-81
2022/04/23 06:21:24;;;;;;;6.12;5.55;;;;;;;13.22;52.68;100959.84;1825357;78;20915;-83
2022/04/23 06:23:52;;;;;;;15.05;11.50;;;;;;;13.22;52.68;100959.84;1825374;78;20938;-81
2022/04/23 06:26:20;;;;;;;8.23;5.60;;;;;;;13.10;52.54;100964.61;1825141;78;20935;-82
2022/04/23 06:28:47;;;;;;;8.38;5.47;;;;;;;12.92;52.71;100960.07;1825301;78;21283;-82
2022/04/23 06:31:14;;;;;;;5.42;4.92;;;;;;;12.71;53.06;100953.06;1825207;78;20880;-81
2022/04/23 06:33:42;;;;;;;6.60;5.78;;;;;;;12.48;53.55;100951.41;1821865;78;20914;-83
2022/04/23 06:36:13;;;;;;;5.65;5.10;;;;;;;12.29;54.12;100956.95;1822055;78;20971;-82
2022/04/23 06:38:39;;;;;;;5.50;5.00;;;;;;;12.18;54.92;100954.14;1822047;78;20935;-83
2022/04/23 06:41:08;;;;;;;8.08;6.30;;;;;;;12.11;55.65;100951.52;1822144;78;22051;-80
2022/04/23 06:43:38;;;;;;;7.83;5.67;;;;;;;12.09;56.33;100954.71;1789736;78;20966;-80
2022/04/23 06:46:05;;;;;;;8.15;5.00;;;;;;;12.06;56.68;100947.02;1824060;77;20895;-80
2022/04/23 06:48:32;;;;;;;6.45;5.67;;;;;;;12.03;56.58;100952.84;1824746;77;20963;-78
2022/04/23 06:51:01;;;;;;;8.88;5.33;;;;;;;12.00;56.90;100938.55;1824088;78;20903;-78
2022/04/23 06:53:28;;;;;;;6.37;5.28;;;;;;;12.03;57.09;100942.33;1823204;78;21096;-80
2022/04/23 06:55:54;;;;;;;5.50;5.00;;;;;;;12.07;57.22;100956.11;1822129;78;20992;-80
2022/04/23 06:58:22;;;;;;;6.08;5.55;;;;;;;12.11;57.22;100955.47;1821990;78;20935;-82
2022/04/23 07:00:50;;;;;;;7.35;5.15;;;;;;;12.12;57.04;100956.70;1822144;78;20884;-81
2022/04/23 07:03:18;;;;;;;5.78;5.28;;;;;;;12.13;57.28;100967.58;1796503;78;20871;-82
2022/04/23 07:05:47;;;;;;;7.00;5.92;;;;;;;12.11;57.17;100961.56;1789773;79;21263;-81
2022/04/23 07:08:17;;;;;;;7.85;5.72;;;;;;;12.12;57.29;100975.58;1789073;78;21377;-81
2022/04/23 07:10:45;;;;;;;7.92;5.80;;;;;;;12.18;57.42;100968.16;1789358;80;20896;-79
2022/04/23 07:13:12;;;;;;;5.85;5.35;;;;;;;12.35;57.43;100963.16;1789395;80;21395;-80
2022/04/23 07:15:44;;;;;;;7.95;6.05;;;;;;;12.63;56.96;100957.50;1789915;79;21389;-82
2022/04/23 07:18:12;;;;;;;6.85;5.05;;;;;;;12.93;56.02;100961.74;1790614;80;21829;-81
2022/04/23 07:20:40;;;;;;;7.05;5.53;;;;;;;13.20;55.17;100958.62;1792263;80;20950;-80
2022/04/23 07:25:52;;;;;;;5.60;5.00;;;;;;;13.61;53.35;100961.66;1791437;80;20875;-82
2022/04/23 07:28:22;;;;;;;6.97;5.28;;;;;;;13.79;53.22;100946.88;1790611;80;20971;-83
2022/04/23 07:30:50;;;;;;;5.97;5.37;;;;;;;13.97;52.82;100941.64;1789696;80;21092;-81
2022/04/23 07:38:48;;;;;;;5.90;5.33;;;;;;;14.87;50.90;100925.17;1789428;79;20975;-82
2022/04/23 07:41:18;;;;;;;8.23;4.50;;;;;;;15.18;49.75;100934.77;1789593;80;20883;-81
2022/04/23 07:43:48;;;;;;;6.12;4.83;;;;;;;15.48;48.79;100937.42;1789646;79;21865;-81
2022/04/23 07:46:16;;;;;;;5.12;4.72;;;;;;;15.63;48.33;100935.39;1789360;79;20880;-82
2022/04/23 07:48:43;;;;;;;4.50;4.20;;;;;;;15.66;48.29;100948.39;1789637;79;20953;-81
2022/04/23 07:51:10;;;;;;;5.00;4.50;;;;;;;15.73;47.87;100933.28;1789629;79;20935;-82
2022/04/23 07:53:38;;;;;;;5.33;4.90;;;;;;;15.73;47.87;100933.28;1789503;80;20990;-80
2022/04/23 07:56:08;;;;;;;6.33;4.75;;;;;;;15.87;48.82;100939.31;1789534;80;20899;-82
2022/04/23 07:58:35;;;;;;;6.70;4.53;;;;;;;16.10;47.48;100937.55;1790063;79;20932;-81
2022/04/23 08:01:03;;;;;;;4.50;3.95;;;;;;;16.18;46.57;100938.25;1790910;80;20887;-82
2022/04/23 08:03:31;;;;;;;5.03;4.30;;;;;;;16.25;46.70;100940.77;1790620;79;21427;-81
2022/04/23 08:05:59;;;;;;;5.60;4.08;;;;;;;16.39;46.19;100940.53;1790602;80;21002;-79
2022/04/23 08:08:26;;;;;;;3.75;3.45;;;;;;;16.58;45.78;100934.59;1790386;80;21290;-82
2022/04/23 08:10:53;;;;;;;4.42;4.03;;;;;;;16.66;45.32;100929.53;1790177;80;20918;-81
2022/04/23 08:13:22;;;;;;;3.65;3.35;;;;;;;16.78;45.40;100925.91;1790494;80;21002;-80
2022/04/23 08:15:50;;;;;;;5.67;3.45;;;;;;;16.97;44.05;100917.80;1790804;79;21446;-81
2022/04/23 08:18:18;;;;;;;6.00;3.40;;;;;;;17.16;43.49;100914.00;1790541;79;20887;-80
2022/04/23 08:20:47;;;;;;;6.05;3.30;;;;;;;17.33;42.79;100921.02;1790400;80;20923;-81
2022/04/23 08:23:16;;;;;;;3.05;2.75;;;;;;;17.53;42.48;100907.41;1789793;80;20939;-82
2022/04/23 08:25:45;;;;;;;3.47;2.80;;;;;;;17.70;41.56;100888.73;1790476;79;20878;-82
2022/04/23 08:30:57;;;;;;;4.83;2.92;;;;;;;17.78;39.71;100882.27;1790910;80;20935;-81
2022/04/23 08:33:57;;;;;;;2.92;2.62;;;;;;;17.73;39.64;100880.51;1794015;79;20884;-80
2022/04/23 08:35:55;;;;;;;2.70;2.17;;;;;;;17.77;39.09;100874.80;1793378;80;21372;-79
2022/04/23 08:38:22;;;;;;;2.98;2.72;;;;;;;17.87;39.25;100872.21;1796331;80;20985;-84
2022/04/23 08:40:48;;;;;;;2.42;2.15;;;;;;;18.07;37.75;100856.38;1796209;80;20998;-81
2022/04/23 08:43:15;;;;;;;8.80;4.28;;;;;;;18.09;37.05;100876.48;1778936;80;20851;-83
2022/04/23 08:45:42;;;;;;;5.95;3.35;;;;;;;18.05;37.04;100869.77;1796384;80;21349;-81
2022/04/23 08:48:14;;;;;;;5.05;3.12;;;;;;;18.26;37.94;100879.50;1796180;80;20938;-81
2022/04/23 08:50:41;;;;;;;3.90;2.72;;;;;;;18.68;36.62;100882.78;1796582;79;20911;-83
2022/04/23 08:53:19;;;;;;;2.72;2.12;;;;;;;19.11;36.43;100876.23;1796254;79;20983;-82
2022/04/23 08:55:47;;;;;;;7.17;2.30;;;;;;;19.51;35.88;100868.55;1767900;80;20888;-82
2022/04/23 08:58:14;;;;;;;5.15;2.27;;;;;;;19.63;33.83;100872.72;1796258;80;21219;-82
2022/04/23 09:00:45;;;;;;;2.33;2.08;;;;;;;19.47;33.79;100868.48;1796079;80;20848;-82
2022/04/23 09:03:15;;;;;;;3.95;2.40;;;;;;;19.32;33.99;100861.93;1796346;79;20954;-82
2022/04/23 09:05:43;;;;;;;2.52;2.27;;;;;;;19.17;33.88;100858.40;1797559;80;20963;-82
2022/04/23 09:08:12;;;;;;;2.67;2.02;;;;;;;18.99;34.19;100854.79;1796341;79;20930;-80
2022/04/23 09:10:57;;;;;;;2.85;2.40;;;;;;;18.83;35.00;100866.82;1796310;80;21467;-83
2022/04/23 09:13:31;;;;;;;2.50;1.95;;;;;;;18.74;34.73;100862.78;1796105;80;20880;-81
2022/04/23 09:24:48;;;;;;;4.42;1.92;;;;;;;18.58;34.65;100845.56;1796038;79;20894;-82
2022/04/23 09:27:15;;;;;;;2.60;2.35;;;;;;;18.70;34.71;100847.63;1796159;80;20899;-81
2022/04/23 09:29:59;;;;;;;2.45;2.10;;;;;;;18.68;34.49;100836.80;1796820;79;20994;-84
2022/04/23 09:32:27;;;;;;;;;;;;;;;18.54;34.60;100838.88;1791443;80;20970;-84
2022/04/23 09:35:12;;;;;;;2.40;2.20;;;;;;;18.34;35.07;100845.11;1791001;80;20096;-83
2022/04/23 09:40:27;;;;;;;2.83;2.17;;;;;;;17.72;36.03;100831.92;1790928;80;20851;-82
2022/04/23 09:43:00;;;;;;;4.10;2.30;;;;;;;17.50;36.75;100833.43;1790927;79;20856;-83
2022/04/23 09:45:29;;;;;;;4.10;2.65;;;;;;;17.36;37.14;100819.55;1790870;80;20924;-84
2022/04/23 09:48:07;;;;;;;2.30;2.10;;;;;;;17.33;37.04;100813.66;1791134;79;20899;-81
2022/04/23 09:50:38;;;;;;;2.95;2.47;;;;;;;17.16;37.30;100813.75;1790645;79;21158;-82
2022/04/23 09:53:18;;;;;;;2.87;2.08;;;;;;;16.87;37.71;100801.63;1791189;79;21420;-81
2022/04/23 09:55:46;;;;;;;5.03;2.12;;;;;;;16.54;38.18;100802.09;1790581;79;20891;-81
2022/04/23 09:58:13;;;;;;;5.03;2.17;;;;;;;16.18;38.93;100788.27;1791396;79;20844;-82
2022/04/23 10:00:47;;;;;;;4.25;2.77;;;;;;;15.99;39.57;100792.89;1791187;80;20946;-82
2022/04/23 10:03:15;;;;;;;;;;;;;;;15.83;39.70;100791.09;1793627;80;20884;-82
2022/04/23 10:05:47;;;;;;;7.95;2.67;;;;;;;15.69;40.27;100794.80;1791096;80;20072;-83
2022/04/23 10:08:18;;;;;;;4.85;2.42;;;;;;;15.61;40.68;100798.55;1791247;79;20883;-83
2022/04/23 10:11:14;;;;;;;2.25;2.08;;;;;;;15.42;41.16;100799.95;1790038;80;20903;-81
2022/04/23 10:13:46;;;;;;;3.42;2.42;;;;;;;15.23;42.10;100805.83;1787994;79;20935;-82
2022/04/23 10:16:13;;;;;;;2.33;2.15;;;;;;;15.13;42.56;100810.95;1791003;79;21349;-82
2022/04/23 10:18:43;;;;;;;4.53;2.70;;;;;;;15.02;43.24;100803.50;1790878;79;20943;-82
2022/04/23 10:21:10;;;;;;;3.33;2.80;;;;;;;15.02;43.24;100803.50;1791196;80;20931;-81
2022/04/23 10:24:05;;;;;;;3.92;2.70;;;;;;;15.05;43.68;100808.53;1790754;79;20994;-81
2022/04/23 10:26:47;;;;;;;2.50;2.30;;;;;;;15.18;44.05;100808.45;1791193;80;20930;-83
2022/04/23 10:29:17;;;;;;;5.53;2.70;;;;;;;15.32;43.38;100791.08;1790933;80;21148;-82
2022/04/23 10:31:48;;;;;;;4.15;2.45;;;;;;;15.42;43.26;100799.12;1790834;80;20884;-81
2022/04/23 10:34:32;;;;;;;6.20;2.37;;;;;;;15.50;42.22;100802.02;1742162;81;20919;-81
2022/04/23 10:37:28;;;;;;;4.75;2.87;;;;;;;15.40;41.99;100800.55;1771362;81;20890;-79
2022/04/23 10:40:01;;;;;;;4.03;2.45;;;;;;;15.29;42.09;100804.50;1770293;81;20911;-81
2022/04/23 10:42:31;;;;;;;2.33;2.20;;;;;;;15.21;41.87;100809.55;1770801;81;21215;-81
2022/04/23 10:45:03;;;;;;;2.60;2.15;;;;;;;15.15;42.28;100802.92;1769605;81;21407;-81
2022/04/23 10:47:34;;;;;;;4.80;2.58;;;;;;;15.18;42.19;100801.84;1769398;81;20934;-81
2022/04/23 10:50:23;;;;;;;6.58;2.42;;;;;;;15.21;41.35;100812.20;1769399;81;20890;-80
2022/04/23 10:52:50;;;;;;;2.40;2.20;;;;;;;15.14;41.44;100794.66;1769000;81;20934;-82
2022/04/23 10:55:23;;;;;;;2.40;2.17;;;;;;;15.09;41.36;100796.30;1769070;81;21164;-83
2022/04/23 10:57:54;;;;;;;2.45;2.25;;;;;;;15.09;41.46;100796.78;1762733;81;20950;-79
2022/04/23 11:00:23;;;;;;;2.72;2.20;;;;;;;15.11;41.33;100797.02;1769759;80;20970;-82
2022/04/23 11:02:59;;;;;;;4.60;2.60;;;;;;;15.09;41.47;100792.33;1769088;81;20922;-80
2022/04/23 11:14:44;;;;;;;2.35;2.15;;;;;;;14.89;42.90;100785.09;1747808;81;21020;-82
2022/04/23 11:17:31;;;;;;;2.02;1.85;;;;;;;14.85;43.09;100802.11;1765945;81;20959;-82
2022/04/23 11:19:57;;;;;;;9.33;5.22;;;;;;;14.79;43.04;100788.08;1741615;81;21002;-82
2022/04/23 11:22:25;;;;;;;5.70;4.08;;;;;;;14.79;43.04;100788.08;1765736;81;21211;-80
2022/04/23 11:24:54;;;;;;;3.98;3.27;;;;;;;14.81;43.51;100789.64;1766773;80;20892;-81
2022/04/23 11:27:28;;;;;;;4.40;2.77;;;;;;;14.88;43.52;100795.30;1741377;81;20966;-81
2022/04/23 11:29:55;;;;;;;6.42;2.85;;;;;;;14.92;43.25;100788.35;1767945;80;20868;-81
2022/04/23 11:32:31;;;;;;;4.60;3.05;;;;;;;15.02;43.40;100791.61;1768549;80;20967;-81
2022/04/23 11:35:05;;;;;;;3.40;2.37;;;;;;;15.13;43.31;100785.03;1758230;80;21015;-79
2022/04/23 11:37:37;;;;;;;2.70;2.30;;;;;;;15.22;42.43;100781.67;1755226;81;20881;-81
2022/04/23 11:40:13;;;;;;;4.40;2.50;;;;;;;15.28;42.14;100786.50;1754312;81;20896;-82
2022/04/23 11:42:45;;;;;;;6.40;2.17;;;;;;;15.32;41.46;100767.30;1754134;81;21537;-81
2022/04/23 11:45:16;;;;;;;3.65;3.30;;;;;;;15.32;41.46;100767.30;1754399;80;20853;-82
2022/04/23 11:47:42;;;;;;;3.00;1.87;;;;;;;15.27;41.41;100762.83;1754368;81;21300;-81
2022/04/23 11:50:15;;;;;;;3.25;2.20;;;;;;;15.19;41.28;100758.15;1754027;81;21014;-79
2022/04/23 11:52:48;;;;;;;2.02;1.72;;;;;;;14.96;39.67;100763.02;1756540;81;20899;-82
2022/04/23 11:55:22;;;;;;;2.77;1.95;;;;;;;14.96;39.67;100763.02;1756677;81;20890;-81
2022/04/23 11:58:01;;;;;;;2.30;2.10;;;;;;;14.81;40.41;100760.59;1758117;81;20927;-83
2022/04/23 12:00:32;;;;;;;2.92;2.02;;;;;;;14.68;40.85;100757.20;1758120;80;21372;-80
2022/04/23 12:02:59;;;;;;;2.75;2.55;;;;;;;14.60;41.43;100753.80;1759331;80;20961;-80
2022/04/23 12:05:32;;;;;;;2.40;1.80;;;;;;;14.53;41.82;100754.35;1757828;81;21337;-80